Geneva, IL (60134)

9:10 PM CST on December 28, 2014 (GMT -0600)
Dover Ridge | Change Station
CLOSE
Current Station
Personal Weather Station
Location: Geneva, IL
Elevation: 745 ft
Nearby Weather Stations

Elev 745 ft 41.89 °N, 88.33 °W | Updated 1 second ago

Clear
Clear
24.9 °F
Feels Like 25 °F
N
0.0
Wind Variable Wind from WNW
Gusts 0.0 mph

Today
High -- | Low -- °F
--% Chance of Precip.
Yesterday
High -- | Low -- °F
Precip. -- in
7:20 AM 4:29 PM
First Quarter, 54% visible
Pressure 30.25 in
Visibility 10.0 miles
Clouds Clear
Windchill 25 °F
Dew Point 20 °F
Humidity 81%
Rainfall 0.00 in
Snow Depth Not available.
UV 0.0 out of 12
Pollen .10 out of 12
Air Quality Not available.
Flu Activity Not available.
METAR KDPA 290252Z 00000KT 10SM CLR M04/M08 A3022 RMK AO2 SLP244 T10441083 53013

More Conditions Fewer Conditions

Pressure 30.25 in
Visibility 10.0 miles
Clouds Clear
Windchill 25 °F
Dew Point 20 °F
Humidity 81%
Rainfall 0.00 in
Snow Depth Not available.
UV 0.0 out of 12
Pollen .10 out of 12
Air Quality Not available.
Flu Activity Not available.
METAR KDPA 290252Z 00000KT 10SM CLR M04/M08 A3022 RMK AO2 SLP244 T10441083 53013

More Conditions Fewer Conditions

10-Day Weather Forecast

Almanac

Astronomy

Dec. 28, 2014 Rise Set
Actual Time
Civil Twilight
Nautical Twilight
Astronomical Twilight
Moon
Length of Visible Light
Length of Day
Tomorrow will be .
, % of the Moon is Illuminated

Today's Extremes

State Highs State Lows

Community

WunderPhotos

Upload Photos

1,781,512 photos uploaded!

WunderBlogs® & News

Nearby

Air Quality

  Air Quality AQ Index Pollutant
Not available.

Snow Depth

Station Depth Elevation

Earthquake Activity

City Distance Mag. Time & Date
Minimum magnitude displayed is 2.5.

Coastal Water Temperatures

Place Temperature

Nearby Weather Stations